Terminal Aerodrome Forecast
Issued by NWS

Home | Current Version | Previous Version | Text Only | Print | Product List | Glossary On
Versions: 1 2 3 4 5 6 7 8 9 10 11 12 13 14 15 16 17 18
000
FTUS45 KSLC 201721
TAFLGU
TAF
KLGU 201721Z 2018/2118 00000KT 1/4SM FZFG VV002
     FM202000 35004KT P6SM SCT040 BKN080
     FM210300 VRB04KT P6SM SCT080=

USA.gov is the U.S. government's official web portal to all federal, state and local government web resources and services.